Time;durP1;ratioP1;P1;durP2;ratioP2;P2;SDS_P1;SDS_P2;PMS_P1;PMS_P2;Temp;Humidity;BMP_temperature;BMP_pressure;BME280_temperature;BME280_humidity;BME280_pressure;Samples;Min_cycle;Max_cycle;Signal;HPM_P1;HPM_P2
2022/06/25 00:01:16;;;;;;;1.00;1.00;;;26.50;51.00;;;;;;5108693;28;20079;-60
2022/06/25 00:03:44;;;;;;;1.33;1.02;;;26.40;50.90;;;;;;5108745;28;20052;-60
2022/06/25 00:06:12;;;;;;;0.80;0.80;;;26.40;50.90;;;;;;5108985;28;20329;-60
2022/06/25 00:08:48;;;;;;;0.70;0.70;;;26.40;51.00;;;;;;5108529;28;20082;-59
2022/06/25 00:14:07;;;;;;;0.90;0.90;;;26.40;51.00;;;;;;5108672;28;20043;-59
2022/06/25 00:16:35;;;;;;;0.80;0.80;;;26.40;51.00;;;;;;5108199;28;20500;-59
2022/06/25 00:19:03;;;;;;;0.88;0.88;;;26.40;51.00;;;;;;5108328;28;20442;-59
2022/06/25 00:21:31;;;;;;;0.75;0.75;;;26.40;51.00;;;;;;5109147;28;20051;-59
2022/06/25 00:23:58;;;;;;;0.98;0.95;;;26.40;51.00;;;;;;5107458;28;20052;-59
2022/06/25 00:26:27;;;;;;;1.35;1.30;;;26.40;51.00;;;;;;5107127;28;20039;-59
2022/06/25 00:28:54;;;;;;;0.80;0.80;;;26.40;51.00;;;;;;5108806;28;20100;-59
2022/06/25 00:31:22;;;;;;;0.75;0.75;;;26.40;51.30;;;;;;5108407;28;20101;-60
2022/06/25 00:33:49;;;;;;;0.88;0.88;;;26.40;51.00;;;;;;5108407;28;20050;-60
2022/06/25 00:36:16;;;;;;;0.90;0.90;;;26.40;51.10;;;;;;5107957;28;20047;-59
2022/06/25 00:38:43;;;;;;;0.80;0.80;;;26.40;51.10;;;;;;5108374;28;20055;-60
2022/06/25 00:41:12;;;;;;;1.05;1.00;;;26.40;51.10;;;;;;5108550;28;20100;-59
2022/06/25 00:43:40;;;;;;;0.77;0.77;;;26.40;51.10;;;;;;5108771;28;20051;-59
2022/06/25 00:46:08;;;;;;;0.93;0.93;;;26.40;51.60;;;;;;5108324;28;20097;-59
2022/06/25 00:48:35;;;;;;;0.60;0.60;;;26.40;51.10;;;;;;5106792;28;20093;-59
2022/06/25 00:51:10;;;;;;;2.17;0.75;;;26.40;51.10;;;;;;5108171;28;20557;-59
2022/06/25 00:53:43;;;;;;;0.70;0.70;;;26.40;51.10;;;;;;5108445;28;20043;-60
2022/06/25 00:56:13;;;;;;;0.80;0.80;;;26.40;51.10;;;;;;5108159;28;20089;-59
2022/06/25 00:58:43;;;;;;;0.70;0.70;;;26.40;51.10;;;;;;5111132;28;20051;-59
2022/06/25 01:01:13;;;;;;;0.93;0.93;;;26.30;51.10;;;;;;5111691;28;20043;-59
2022/06/25 01:03:40;;;;;;;0.80;0.80;;;26.40;51.20;;;;;;5112081;28;20082;-59
2022/06/25 01:06:08;;;;;;;0.90;0.90;;;26.30;51.10;;;;;;5111451;28;20048;-59
2022/06/25 01:08:36;;;;;;;0.55;0.55;;;26.30;51.10;;;;;;5112125;28;20047;-59
2022/06/25 01:11:03;;;;;;;0.70;0.70;;;26.40;51.10;;;;;;5112214;28;20043;-59
2022/06/25 01:13:31;;;;;;;0.70;0.70;;;26.40;51.20;;;;;;5110386;28;20146;-59
2022/06/25 01:15:58;;;;;;;0.80;0.80;;;26.30;51.10;;;;;;5111980;28;20071;-59
2022/06/25 01:18:26;;;;;;;0.85;0.85;;;26.30;51.10;;;;;;5112002;28;20400;-60
2022/06/25 01:20:54;;;;;;;0.68;0.68;;;26.30;51.10;;;;;;5111352;28;20101;-59
2022/06/25 01:23:22;;;;;;;0.98;0.98;;;26.30;51.10;;;;;;5111576;28;20104;-59
2022/06/25 01:25:49;;;;;;;0.90;0.90;;;26.30;51.10;;;;;;5111517;28;20096;-60
2022/06/25 01:28:17;;;;;;;0.90;0.90;;;26.30;51.20;;;;;;5111304;28;20504;-59
2022/06/25 01:30:45;;;;;;;0.90;0.90;;;26.30;51.20;;;;;;5111304;28;20040;-59
2022/06/25 01:33:12;;;;;;;1.23;1.13;;;26.30;51.20;;;;;;5111543;28;20473;-59
2022/06/25 01:35:39;;;;;;;0.70;0.70;;;26.30;51.20;;;;;;5111541;28;20093;-59
2022/06/25 01:38:06;;;;;;;2.05;0.70;;;26.30;51.20;;;;;;5109965;28;20441;-59
2022/06/25 01:40:34;;;;;;;0.80;0.80;;;26.30;51.20;;;;;;5111366;28;20100;-59
2022/06/25 01:43:02;;;;;;;0.60;0.60;;;26.30;51.20;;;;;;5111037;28;20104;-59
2022/06/25 01:45:32;;;;;;;1.00;1.00;;;26.30;51.20;;;;;;5111344;28;20522;-61
2022/06/25 01:48:00;;;;;;;0.80;0.80;;;26.30;51.20;;;;;;5109820;28;20048;-59
2022/06/25 01:50:28;;;;;;;0.70;0.70;;;26.30;51.20;;;;;;5111453;28;20085;-59
2022/06/25 01:52:56;;;;;;;0.63;0.63;;;26.30;51.30;;;;;;5111242;28;20044;-59
2022/06/25 01:55:23;;;;;;;0.70;0.70;;;26.30;51.30;;;;;;5109407;28;20048;-59
2022/06/25 01:57:51;;;;;;;1.10;1.00;;;26.30;51.30;;;;;;5110897;28;20047;-59
2022/06/25 02:00:25;;;;;;;0.60;0.60;;;26.30;51.30;;;;;;5111190;28;20056;-59
2022/06/25 02:02:53;;;;;;;0.77;0.77;;;26.30;51.30;;;;;;5110511;28;20043;-59
2022/06/25 02:08:13;;;;;;;0.70;0.70;;;26.30;51.30;;;;;;5110698;28;20051;-59
2022/06/25 02:10:41;;;;;;;0.57;0.57;;;26.30;51.30;;;;;;5110226;28;20077;-59
2022/06/25 02:13:08;;;;;;;0.90;0.90;;;26.20;51.30;;;;;;5110670;28;20116;-59
2022/06/25 02:15:36;;;;;;;0.88;0.88;;;26.20;51.30;;;;;;5109629;28;20079;-60
2022/06/25 02:18:03;;;;;;;1.20;1.20;;;26.30;51.40;;;;;;5110592;28;20463;-59
2022/06/25 02:20:30;;;;;;;0.80;0.80;;;26.20;51.30;;;;;;5110572;28;20056;-59
2022/06/25 02:22:58;;;;;;;0.90;0.90;;;26.20;51.30;;;;;;5109481;28;20047;-59
2022/06/25 02:25:25;;;;;;;0.80;0.80;;;26.20;51.30;;;;;;5110501;28;20044;-59
2022/06/25 02:27:52;;;;;;;1.20;1.10;;;26.20;51.40;;;;;;5110120;28;20044;-59
2022/06/25 02:30:20;;;;;;;0.80;0.80;;;26.20;51.40;;;;;;5110624;28;20075;-59
2022/06/25 02:32:47;;;;;;;0.90;0.90;;;26.20;51.40;;;;;;5110307;28;20131;-59
2022/06/25 02:35:15;;;;;;;0.70;0.70;;;26.20;51.40;;;;;;5109981;27;20054;-59
2022/06/25 02:37:43;;;;;;;0.90;0.90;;;26.20;51.40;;;;;;5110262;28;20123;-60
2022/06/25 02:40:11;;;;;;;0.77;0.77;;;26.20;51.40;;;;;;5110213;28;20074;-59
2022/06/25 02:42:39;;;;;;;1.00;1.00;;;26.20;51.40;;;;;;5110017;28;20131;-60
2022/06/25 02:45:08;;;;;;;1.20;1.17;;;26.20;51.40;;;;;;5109710;28;20093;-59
2022/06/25 02:47:36;;;;;;;0.80;0.80;;;26.20;51.40;;;;;;5110095;28;20476;-59
2022/06/25 02:50:04;;;;;;;0.70;0.70;;;26.20;51.50;;;;;;5109726;28;20116;-60
2022/06/25 02:52:32;;;;;;;0.80;0.80;;;26.20;51.50;;;;;;5108405;28;20124;-60
2022/06/25 02:54:59;;;;;;;0.63;0.63;;;26.20;51.50;;;;;;5109998;28;20043;-60
2022/06/25 03:00:14;;;;;;;0.88;0.88;;;26.20;51.50;;;;;;5109374;28;20071;-60
2022/06/25 03:02:42;;;;;;;0.65;0.60;;;26.20;51.50;;;;;;5109783;28;20047;-60
2022/06/25 03:05:10;;;;;;;0.90;0.90;;;26.20;51.50;;;;;;5108528;28;20536;-60
2022/06/25 03:07:37;;;;;;;0.77;0.77;;;26.20;51.50;;;;;;5109703;28;20425;-60
2022/06/25 03:10:05;;;;;;;1.27;0.98;;;26.20;51.50;;;;;;5108337;28;20051;-60
2022/06/25 03:12:32;;;;;;;0.73;0.73;;;26.20;51.70;;;;;;5109836;28;20082;-60
2022/06/25 03:14:59;;;;;;;1.15;1.00;;;26.10;51.50;;;;;;5109582;28;20047;-60
2022/06/25 03:17:27;;;;;;;1.92;0.82;;;26.20;51.50;;;;;;5109772;28;20475;-60
2022/06/25 03:19:54;;;;;;;1.00;1.00;;;26.20;51.50;;;;;;5109536;28;20048;-60
2022/06/25 03:22:22;;;;;;;0.80;0.80;;;26.20;51.50;;;;;;5109336;28;20495;-60
2022/06/25 03:24:49;;;;;;;0.70;0.70;;;26.20;51.50;;;;;;5109123;28;20092;-61
2022/06/25 03:27:17;;;;;;;1.25;1.15;;;26.20;51.50;;;;;;5109226;28;20047;-60
2022/06/25 03:29:44;;;;;;;0.90;0.90;;;26.20;51.50;;;;;;5109257;28;20528;-60
2022/06/25 03:32:11;;;;;;;1.08;0.95;;;26.20;51.50;;;;;;5109012;28;20047;-60
2022/06/25 03:34:38;;;;;;;1.10;1.10;;;26.20;51.40;;;;;;5108760;28;20098;-60
2022/06/25 03:37:06;;;;;;;1.02;0.95;;;26.20;51.40;;;;;;5109627;28;20515;-60
2022/06/25 03:39:33;;;;;;;2.28;0.82;;;26.20;51.40;;;;;;5107668;28;20051;-60
2022/06/25 03:42:00;;;;;;;0.93;0.93;;;26.20;51.40;;;;;;5109120;28;20509;-60
2022/06/25 03:44:27;;;;;;;1.00;1.00;;;26.30;51.40;;;;;;5108646;28;20088;-60
2022/06/25 03:46:54;;;;;;;0.90;0.90;;;26.30;51.30;;;;;;5109180;28;20040;-60
2022/06/25 03:49:22;;;;;;;0.90;0.90;;;26.30;51.30;;;;;;5108870;28;20043;-60
2022/06/25 03:51:49;;;;;;;1.13;1.13;;;26.40;51.30;;;;;;5108634;28;20044;-61
2022/06/25 03:54:17;;;;;;;0.70;0.70;;;26.30;51.20;;;;;;5108679;28;20047;-60
2022/06/25 03:56:44;;;;;;;0.85;0.70;;;26.40;51.20;;;;;;5109157;28;20047;-60
2022/06/25 03:59:11;;;;;;;1.15;1.15;;;26.40;51.10;;;;;;5108854;28;20500;-60
2022/06/25 04:01:39;;;;;;;0.90;0.90;;;26.40;51.00;;;;;;5107703;28;20047;-61
2022/06/25 04:04:07;;;;;;;0.95;0.95;;;26.50;51.00;;;;;;5108880;28;20157;-60
2022/06/25 04:06:34;;;;;;;0.90;0.90;;;26.50;50.90;;;;;;5108812;28;20043;-60
2022/06/25 04:09:02;;;;;;;0.98;0.77;;;26.50;50.80;;;;;;5107274;28;20044;-60
2022/06/25 04:11:29;;;;;;;0.70;0.70;;;26.50;50.70;;;;;;5108964;28;20067;-60
2022/06/25 04:13:57;;;;;;;0.85;0.85;;;26.50;50.70;;;;;;5108626;28;20453;-61
2022/06/25 04:16:24;;;;;;;0.90;0.90;;;26.60;50.70;;;;;;5108502;28;20475;-60
2022/06/25 04:18:52;;;;;;;1.00;1.00;;;26.60;50.60;;;;;;5108572;28;20560;-60
2022/06/25 04:21:19;;;;;;;0.90;0.90;;;26.60;50.50;;;;;;5108709;28;20441;-60
2022/06/25 04:23:46;;;;;;;0.80;0.80;;;26.70;50.50;;;;;;5107339;28;20108;-60
2022/06/25 04:26:14;;;;;;;0.73;0.73;;;26.70;50.50;;;;;;5107897;28;20086;-60
2022/06/25 04:31:28;;;;;;;0.70;0.70;;;26.70;50.30;;;;;;5108921;28;20448;-58
2022/06/25 04:33:57;;;;;;;0.82;0.82;;;26.70;50.30;;;;;;5111829;28;20051;-58
2022/06/25 04:36:24;;;;;;;0.82;0.82;;;26.80;50.30;;;;;;5112816;28;20043;-60
2022/06/25 04:38:51;;;;;;;0.90;0.90;;;26.80;50.30;;;;;;5112695;28;20052;-60
2022/06/25 04:41:18;;;;;;;0.85;0.85;;;26.80;50.10;;;;;;5112231;28;20132;-60
2022/06/25 04:43:45;;;;;;;0.90;0.90;;;26.80;50.10;;;;;;5112421;28;20074;-60
2022/06/25 04:46:14;;;;;;;0.80;0.80;;;26.90;50.10;;;;;;5112351;28;20094;-60
2022/06/25 04:48:42;;;;;;;1.13;1.13;;;26.90;50.10;;;;;;5112781;28;20074;-60
2022/06/25 04:51:09;;;;;;;0.98;0.98;;;26.90;50.10;;;;;;5112417;28;20097;-60
2022/06/25 04:53:54;;;;;;;0.90;0.90;;;26.90;50.00;;;;;;5112653;28;20178;-60
2022/06/25 04:56:26;;;;;;;0.85;0.80;;;26.90;50.00;;;;;;5112170;28;20648;-61
2022/06/25 04:58:55;;;;;;;2.67;0.80;;;27.00;50.00;;;;;;5110749;28;20048;-60
2022/06/25 05:01:23;;;;;;;1.10;1.02;;;27.00;49.90;;;;;;5112281;28;20096;-60
2022/06/25 05:03:50;;;;;;;1.30;1.00;;;27.00;49.90;;;;;;5111934;28;20134;-60
2022/06/25 05:06:18;;;;;;;0.80;0.80;;;27.00;49.80;;;;;;5112614;28;20055;-60
2022/06/25 05:08:45;;;;;;;2.03;1.30;;;27.00;49.80;;;;;;5112148;28;20131;-60
2022/06/25 05:11:12;;;;;;;0.77;0.75;;;26.90;50.00;;;;;;5110927;28;20048;-60
2022/06/25 05:13:39;;;;;;;1.05;0.95;;;26.80;50.30;;;;;;5111535;28;20047;-60
2022/06/25 05:16:06;;;;;;;1.05;1.05;;;26.60;50.70;;;;;;5112046;28;20086;-60
2022/06/25 05:18:34;;;;;;;1.10;1.10;;;26.40;51.30;;;;;;5111780;28;20047;-60
2022/06/25 05:21:01;;;;;;;0.85;0.85;;;26.10;51.70;;;;;;5111905;28;20097;-60
2022/06/25 05:23:29;;;;;;;1.17;1.17;;;25.80;51.60;;;;;;5111576;28;20092;-60
2022/06/25 05:25:56;;;;;;;1.10;1.10;;;25.50;51.10;;;;;;5111538;28;20087;-60
2022/06/25 05:28:23;;;;;;;1.23;1.23;;;25.20;50.60;;;;;;5110433;28;20485;-60
2022/06/25 05:30:51;;;;;;;1.60;1.50;;;24.80;50.40;;;;;;5111558;28;20083;-60
2022/06/25 05:33:18;;;;;;;1.45;1.38;;;24.40;50.20;;;;;;5111669;28;20260;-60
2022/06/25 05:35:45;;;;;;;1.45;1.45;;;24.00;50.20;;;;;;5110117;28;20078;-60
2022/06/25 05:38:13;;;;;;;1.38;1.27;;;23.60;50.30;;;;;;5110067;28;20115;-60
2022/06/25 05:40:40;;;;;;;1.40;1.30;;;23.30;50.20;;;;;;5111349;28;20502;-60
2022/06/25 05:43:07;;;;;;;1.35;1.25;;;23.00;50.40;;;;;;5109885;28;20126;-61
2022/06/25 05:45:35;;;;;;;1.40;1.40;;;22.70;50.50;;;;;;5110666;28;20381;-60
2022/06/25 05:48:03;;;;;;;1.60;1.50;;;22.40;50.80;;;;;;5110638;28;20077;-60
2022/06/25 05:50:30;;;;;;;1.50;1.40;;;22.10;52.80;;;;;;5111062;28;20052;-60
2022/06/25 05:52:58;;;;;;;1.85;1.65;;;22.00;53.40;;;;;;5109877;28;20885;-60
2022/06/25 05:55:25;;;;;;;1.50;1.42;;;21.80;53.00;;;;;;5111492;28;20075;-60
2022/06/25 05:57:52;;;;;;;1.77;1.60;;;21.60;53.30;;;;;;5110640;28;20096;-60
2022/06/25 06:00:20;;;;;;;2.03;1.92;;;21.50;53.70;;;;;;5110971;28;20496;-60
2022/06/25 06:02:47;;;;;;;1.80;1.70;;;21.30;54.10;;;;;;5110966;28;20075;-60
2022/06/25 06:05:15;;;;;;;1.60;1.50;;;21.20;54.60;;;;;;5110637;27;20484;-59
2022/06/25 06:07:42;;;;;;;1.77;1.65;;;21.10;55.20;;;;;;5109586;28;20044;-59
2022/06/25 06:10:09;;;;;;;1.85;1.75;;;21.00;55.10;;;;;;5111258;27;20055;-59
2022/06/25 06:12:36;;;;;;;1.92;1.83;;;21.00;55.00;;;;;;5109390;28;20047;-60
2022/06/25 06:15:04;;;;;;;2.58;2.38;;;20.90;55.50;;;;;;5109680;28;20443;-60
2022/06/25 06:17:32;;;;;;;1.45;1.45;;;20.90;55.70;;;;;;5110564;28;20100;-60
2022/06/25 06:19:59;;;;;;;1.63;1.52;;;20.80;56.10;;;;;;5110706;28;20092;-60
2022/06/25 06:22:27;;;;;;;1.60;1.50;;;20.80;56.00;;;;;;5109214;28;20475;-60
2022/06/25 06:24:55;;;;;;;1.35;1.35;;;20.70;56.20;;;;;;5109019;28;20039;-60
2022/06/25 06:27:22;;;;;;;2.10;1.90;;;20.70;56.40;;;;;;5109922;28;20048;-60
2022/06/25 06:29:49;;;;;;;1.60;1.50;;;20.80;56.80;;;;;;5110340;27;20059;-60
2022/06/25 06:32:16;;;;;;;1.35;1.35;;;20.70;56.50;;;;;;5109147;28;20085;-61
2022/06/25 06:34:44;;;;;;;1.50;1.35;;;20.70;56.40;;;;;;5110655;28;20071;-60
2022/06/25 06:37:11;;;;;;;1.25;1.15;;;20.70;56.40;;;;;;5110099;28;20376;-59
2022/06/25 06:39:45;;;;;;;1.50;1.50;;;20.70;56.50;;;;;;5108996;28;20156;-60
2022/06/25 06:42:12;;;;;;;1.55;1.45;;;20.70;56.40;;;;;;5109930;28;20092;-60
2022/06/25 06:44:40;;;;;;;1.13;1.13;;;20.70;56.50;;;;;;5110161;28;20079;-59
2022/06/25 06:47:07;;;;;;;1.23;1.05;;;20.70;56.50;;;;;;5109997;28;20620;-59
2022/06/25 06:49:34;;;;;;;1.10;1.10;;;20.70;57.20;;;;;;5108707;28;20090;-60
2022/06/25 06:52:01;;;;;;;1.33;1.33;;;20.70;56.50;;;;;;5110249;28;20791;-59
2022/06/25 06:54:28;;;;;;;1.00;1.00;;;20.70;56.60;;;;;;5108305;28;20493;-59
2022/06/25 06:56:56;;;;;;;1.08;1.08;;;20.70;57.10;;;;;;5109867;28;20059;-60
2022/06/25 06:59:23;;;;;;;1.00;1.00;;;20.60;56.50;;;;;;5110019;28;20181;-60
2022/06/25 07:01:50;;;;;;;1.60;1.50;;;20.60;56.70;;;;;;5110241;28;20071;-60
2022/06/25 07:04:17;;;;;;;0.98;0.98;;;20.60;56.80;;;;;;5108819;28;20738;-59
2022/06/25 07:06:45;;;;;;;1.30;1.20;;;20.60;56.60;;;;;;5108415;28;20078;-59
2022/06/25 07:09:12;;;;;;;0.90;0.85;;;20.60;56.70;;;;;;5109899;28;20127;-60
2022/06/25 07:11:39;;;;;;;1.13;1.10;;;20.60;56.80;;;;;;5109839;28;20048;-59
2022/06/25 07:14:06;;;;;;;0.90;0.90;;;20.50;56.90;;;;;;5109109;28;20492;-59
2022/06/25 07:16:35;;;;;;;0.82;0.82;;;20.60;56.70;;;;;;5108599;28;20052;-59
2022/06/25 07:19:02;;;;;;;2.00;0.90;;;20.50;56.80;;;;;;5109688;28;20043;-60
2022/06/25 07:21:29;;;;;;;0.85;0.85;;;20.50;56.90;;;;;;5109592;28;20044;-64
2022/06/25 07:23:57;;;;;;;0.95;0.95;;;20.40;56.90;;;;;;5109026;28;20135;-60
2022/06/25 07:26:25;;;;;;;0.90;0.90;;;20.40;57.20;;;;;;5108969;28;20047;-60
2022/06/25 07:28:53;;;;;;;1.20;1.13;;;20.40;57.00;;;;;;5109528;28;20040;-59
2022/06/25 07:31:20;;;;;;;0.93;0.93;;;20.30;57.00;;;;;;5109244;28;20480;-60
2022/06/25 07:33:49;;;;;;;0.98;0.98;;;20.30;57.40;;;;;;5109503;28;20051;-60
2022/06/25 07:36:16;;;;;;;0.90;0.90;;;20.30;57.40;;;;;;5109074;28;20480;-60
2022/06/25 07:38:43;;;;;;;0.60;0.60;;;20.30;57.40;;;;;;5108997;28;20092;-67
2022/06/25 07:41:10;;;;;;;0.80;0.80;;;20.30;57.70;;;;;;5108014;28;20535;-60
2022/06/25 07:43:38;;;;;;;0.77;0.77;;;20.20;57.60;;;;;;5108631;27;20377;-60
2022/06/25 07:46:05;;;;;;;0.80;0.80;;;20.20;57.70;;;;;;5109294;28;20052;-60
2022/06/25 07:48:33;;;;;;;0.80;0.80;;;20.20;57.80;;;;;;5109173;28;20304;-60
2022/06/25 07:53:47;;;;;;;0.73;0.65;;;20.20;58.00;;;;;;5108953;28;20047;-59
2022/06/25 07:56:14;;;;;;;0.68;0.68;;;20.10;58.10;;;;;;5109163;28;20039;-60
2022/06/25 07:58:41;;;;;;;0.60;0.60;;;20.10;58.50;;;;;;5108853;28;20507;-60
2022/06/25 08:01:09;;;;;;;0.65;0.65;;;20.10;58.40;;;;;;5108665;28;20644;-60
2022/06/25 08:03:36;;;;;;;0.63;0.63;;;20.00;58.30;;;;;;5108958;28;20131;-60
2022/06/25 08:06:03;;;;;;;0.93;0.90;;;20.00;58.70;;;;;;5108706;28;20047;-60
2022/06/25 08:08:31;;;;;;;0.60;0.60;;;20.00;58.60;;;;;;5106292;28;20483;-62
2022/06/25 08:10:59;;;;;;;0.38;0.38;;;20.00;58.70;;;;;;5109072;28;20561;-59
2022/06/25 08:13:26;;;;;;;0.50;0.50;;;20.00;59.10;;;;;;5108463;28;20560;-59
2022/06/25 08:15:54;;;;;;;1.17;0.60;;;20.00;59.00;;;;;;5108875;28;20051;-60
2022/06/25 08:18:22;;;;;;;0.50;0.50;;;19.90;59.30;;;;;;5108755;28;20043;-60
2022/06/25 08:20:50;;;;;;;0.50;0.50;;;19.90;59.10;;;;;;5107594;28;20074;-60
2022/06/25 08:23:17;;;;;;;0.45;0.45;;;19.90;59.30;;;;;;5108918;28;20081;-60
2022/06/25 08:25:44;;;;;;;0.55;0.40;;;19.90;59.20;;;;;;5107966;28;20075;-60
2022/06/25 08:28:12;;;;;;;0.55;0.55;;;19.90;59.10;;;;;;5108698;28;20093;-60
2022/06/25 08:30:41;;;;;;;0.47;0.43;;;19.90;59.30;;;;;;5108475;28;20511;-60
2022/06/25 08:33:09;;;;;;;1.83;0.50;;;19.80;59.30;;;;;;5108356;28;20044;-60
2022/06/25 08:35:37;;;;;;;0.40;0.40;;;19.80;59.60;;;;;;5108409;28;20116;-59
2022/06/25 08:38:04;;;;;;;0.40;0.40;;;19.80;59.50;;;;;;5108365;28;20472;-59
2022/06/25 08:40:31;;;;;;;0.40;0.40;;;19.80;59.40;;;;;;5108210;28;20059;-60
2022/06/25 08:42:59;;;;;;;0.40;0.40;;;19.80;59.80;;;;;;5108406;28;20097;-60
2022/06/25 08:45:26;;;;;;;0.40;0.40;;;19.90;59.80;;;;;;5108383;28;20051;-60
2022/06/25 08:47:58;;;;;;;0.60;0.60;;;19.90;59.70;;;;;;5108443;28;20075;-60
2022/06/25 08:50:30;;;;;;;0.47;0.45;;;19.90;59.60;;;;;;5107872;28;20052;-60
2022/06/25 08:52:59;;;;;;;0.40;0.40;;;19.90;59.80;;;;;;5108477;28;20130;-60
2022/06/25 08:55:32;;;;;;;0.35;0.35;;;19.90;59.80;;;;;;5108621;28;20400;-60
2022/06/25 08:58:01;;;;;;;0.30;0.30;;;19.90;60.00;;;;;;5108298;28;20051;-60
2022/06/25 09:00:31;;;;;;;0.98;0.22;;;19.90;60.00;;;;;;5106996;28;20100;-60
2022/06/25 09:02:59;;;;;;;0.45;0.45;;;19.90;59.80;;;;;;5106679;28;20052;-60
2022/06/25 09:05:31;;;;;;;0.30;0.30;;;19.90;60.10;;;;;;5108297;28;20480;-60
2022/06/25 09:08:02;;;;;;;0.30;0.30;;;19.90;60.10;;;;;;5107117;28;20048;-60
2022/06/25 09:10:30;;;;;;;0.50;0.50;;;19.90;60.40;;;;;;5108189;28;20134;-60
2022/06/25 09:12:59;;;;;;;0.82;0.82;;;19.90;60.50;;;;;;5108300;28;20083;-60
2022/06/25 09:15:33;;;;;;;0.43;0.30;;;19.90;60.60;;;;;;5108190;28;20083;-60
2022/06/25 09:18:09;;;;;;;0.30;0.30;;;19.90;60.80;;;;;;5108542;28;20450;-60
2022/06/25 09:21:02;;;;;;;0.38;0.38;;;19.90;60.70;;;;;;5112073;27;20056;-60
2022/06/25 09:23:30;;;;;;;0.20;0.20;;;20.00;60.70;;;;;;5111717;28;20063;-60
2022/06/25 09:26:11;;;;;;;0.38;0.38;;;20.00;60.60;;;;;;5111744;28;20052;-60
2022/06/25 09:28:41;;;;;;;0.30;0.30;;;20.00;60.30;;;;;;5111937;28;20082;-60
2022/06/25 09:31:09;;;;;;;0.30;0.30;;;20.00;60.60;;;;;;5111747;27;20101;-60
2022/06/25 09:33:39;;;;;;;0.50;0.50;;;20.00;60.20;;;;;;5111724;28;20079;-60
2022/06/25 09:36:10;;;;;;;0.45;0.45;;;20.10;60.40;;;;;;5110230;28;20055;-60
2022/06/25 09:38:50;;;;;;;0.20;0.20;;;20.00;60.40;;;;;;5111831;28;20082;-60
2022/06/25 09:41:17;;;;;;;0.30;0.30;;;20.10;60.30;;;;;;5111782;27;20422;-60
2022/06/25 09:43:47;;;;;;;0.30;0.30;;;20.10;60.50;;;;;;5111647;28;20101;-60
2022/06/25 09:46:15;;;;;;;0.30;0.30;;;20.00;60.60;;;;;;5111287;28;20044;-60
2022/06/25 09:48:43;;;;;;;0.20;0.20;;;20.10;60.90;;;;;;5111440;28;20134;-60
2022/06/25 09:51:12;;;;;;;0.30;0.30;;;20.10;61.40;;;;;;5111543;28;20117;-60
2022/06/25 09:53:54;;;;;;;0.40;0.32;;;20.10;60.90;;;;;;5111593;28;20050;-60
2022/06/25 09:56:27;;;;;;;0.38;0.38;;;20.20;60.60;;;;;;5111012;28;20052;-60
2022/06/25 09:58:55;;;;;;;0.40;0.40;;;20.20;60.40;;;;;;5111174;28;20055;-60
2022/06/25 10:01:25;;;;;;;0.57;0.50;;;20.10;60.10;;;;;;5110167;28;20048;-60
2022/06/25 10:03:53;;;;;;;0.40;0.40;;;20.10;60.20;;;;;;5111211;28;20048;-60
2022/06/25 10:06:22;;;;;;;0.20;0.20;;;20.10;59.90;;;;;;5111303;27;20043;-60
2022/06/25 10:08:52;;;;;;;0.30;0.30;;;20.10;60.00;;;;;;5110895;28;20053;-60
2022/06/25 10:11:21;;;;;;;0.43;0.20;;;20.10;59.60;;;;;;5111246;28;20194;-60
2022/06/25 10:13:51;;;;;;;0.20;0.20;;;20.10;59.30;;;;;;5103177;28;20085;-60
2022/06/25 10:16:20;;;;;;;0.22;0.22;;;20.00;59.30;;;;;;5094817;28;20288;-60
2022/06/25 10:18:49;;;;;;;0.65;0.40;;;20.00;59.20;;;;;;5091208;28;20055;-60
2022/06/25 10:21:18;;;;;;;0.30;0.30;;;20.00;59.20;;;;;;5090233;28;20400;-60
2022/06/25 10:23:49;;;;;;;0.28;0.28;;;20.00;59.10;;;;;;5090331;28;20135;-60
2022/06/25 10:26:17;;;;;;;0.75;0.40;;;20.00;58.80;;;;;;5090249;28;20477;-60
2022/06/25 10:28:46;;;;;;;0.20;0.20;;;20.00;58.90;;;;;;5089847;28;20048;-60
2022/06/25 10:31:16;;;;;;;0.30;0.25;;;19.90;58.70;;;;;;5089350;28;20139;-60
2022/06/25 10:34:02;;;;;;;0.20;0.20;;;19.90;58.70;;;;;;5090051;28;20123;-60
2022/06/25 10:36:42;;;;;;;0.50;0.50;;;19.90;58.70;;;;;;5090505;28;20059;-60
2022/06/25 10:39:33;;;;;;;0.30;0.20;;;19.90;59.00;;;;;;5089078;28;20491;-60
2022/06/25 10:45:44;;;;;;;0.32;0.32;;;19.80;58.50;;;;;;5089746;28;20094;-60
2022/06/25 10:48:12;;;;;;;0.20;0.20;;;19.90;58.90;;;;;;5089671;28;20408;-61
2022/06/25 10:50:46;;;;;;;0.30;0.30;;;19.90;59.10;;;;;;5089790;28;20082;-60
2022/06/25 10:53:16;;;;;;;0.30;0.30;;;19.90;59.00;;;;;;5089410;28;20048;-60
2022/06/25 10:56:02;;;;;;;0.65;0.30;;;19.80;59.20;;;;;;5089742;28;20078;-60
2022/06/25 10:58:43;;;;;;;0.20;0.20;;;19.80;59.60;;;;;;5089538;28;20557;-60
2022/06/25 11:01:23;;;;;;;0.20;0.20;;;19.80;59.30;;;;;;5088670;28;20051;-60
2022/06/25 11:03:55;;;;;;;0.47;0.30;;;19.80;58.80;;;;;;5089179;28;20404;-60
2022/06/25 11:06:24;;;;;;;0.32;0.32;;;19.80;58.90;;;;;;5089183;28;20130;-60
2022/06/25 11:08:53;;;;;;;0.20;0.20;;;19.80;59.20;;;;;;5089450;28;20044;-60
2022/06/25 11:11:29;;;;;;;0.22;0.20;;;19.80;58.30;;;;;;5089337;28;20089;-60
2022/06/25 11:13:58;;;;;;;0.40;0.40;;;19.80;58.60;;;;;;5090699;28;20076;-60
2022/06/25 11:16:25;;;;;;;0.20;0.20;;;19.70;58.60;;;;;;5104305;28;20122;-60
2022/06/25 11:18:58;;;;;;;0.30;0.30;;;19.70;58.80;;;;;;5109358;27;20051;-60
2022/06/25 11:21:30;;;;;;;0.43;0.40;;;19.70;58.40;;;;;;5106283;28;20458;-60
2022/06/25 11:24:12;;;;;;;1.23;0.30;;;19.60;58.40;;;;;;5090197;28;20103;-60
2022/06/25 11:29:33;;;;;;;0.40;0.40;;;19.60;58.10;;;;;;5106663;28;20047;-60
2022/06/25 11:32:00;;;;;;;0.45;0.45;;;19.60;58.30;;;;;;5106691;28;20135;-60
2022/06/25 11:34:29;;;;;;;0.20;0.20;;;19.60;58.10;;;;;;5108556;28;20116;-60
2022/06/25 11:37:11;;;;;;;0.43;0.20;;;19.50;58.40;;;;;;5109338;28;20047;-60
2022/06/25 11:39:40;;;;;;;0.30;0.30;;;19.60;58.60;;;;;;5107622;28;20059;-60
2022/06/25 11:42:10;;;;;;;0.20;0.20;;;19.50;58.80;;;;;;5109241;28;20044;-61
2022/06/25 11:44:45;;;;;;;0.30;0.30;;;19.50;58.80;;;;;;5090498;28;20056;-60
2022/06/25 11:47:23;;;;;;;0.20;0.20;;;19.50;59.00;;;;;;5088791;28;20075;-60
2022/06/25 11:49:51;;;;;;;0.38;0.38;;;19.50;59.00;;;;;;5088025;28;20781;-60
2022/06/25 11:52:21;;;;;;;1.08;0.40;;;19.50;59.10;;;;;;5089045;28;20397;-60
2022/06/25 11:54:49;;;;;;;0.20;0.20;;;19.60;59.00;;;;;;5099174;28;20496;-60
2022/06/25 11:57:19;;;;;;;0.30;0.30;;;19.60;59.00;;;;;;5071138;28;20071;-60
2022/06/25 11:59:46;;;;;;;0.30;0.30;;;19.60;59.10;;;;;;5088467;28;20051;-60
2022/06/25 12:02:14;;;;;;;0.35;0.35;;;19.60;59.00;;;;;;5087471;28;20113;-60
2022/06/25 12:04:59;;;;;;;0.30;0.30;;;19.60;58.80;;;;;;5088193;28;20507;-60
2022/06/25 12:07:29;;;;;;;0.20;0.20;;;19.60;59.00;;;;;;5088021;28;20040;-59
2022/06/25 12:09:59;;;;;;;0.20;0.20;;;19.60;58.80;;;;;;5087619;28;20048;-60
2022/06/25 12:12:27;;;;;;;0.20;0.20;;;19.60;58.80;;;;;;5088874;28;20051;-60
2022/06/25 12:14:56;;;;;;;0.35;0.30;;;19.60;59.00;;;;;;5089859;28;20044;-60
2022/06/25 12:17:32;;;;;;;0.32;0.32;;;19.60;59.00;;;;;;5087164;28;20079;-60
2022/06/25 12:20:08;;;;;;;0.30;0.30;;;19.60;59.10;;;;;;5087836;28;20082;-60
2022/06/25 12:22:48;;;;;;;0.65;0.20;;;19.60;59.20;;;;;;5086813;28;20455;-60
2022/06/25 12:25:31;;;;;;;0.43;0.40;;;19.60;59.20;;;;;;5100498;27;20075;-60
2022/06/25 12:27:59;;;;;;;0.30;0.30;;;19.60;59.10;;;;;;5104748;28;20519;-60
2022/06/25 12:30:29;;;;;;;0.90;0.40;;;19.70;59.30;;;;;;5108339;28;20453;-60
2022/06/25 12:33:16;;;;;;;0.30;0.30;;;19.70;59.60;;;;;;5107380;28;20196;-59
2022/06/25 12:35:45;;;;;;;0.40;0.40;;;19.70;59.60;;;;;;5100847;28;20044;-60
2022/06/25 12:38:14;;;;;;;0.77;0.20;;;19.70;59.70;;;;;;5087598;28;20122;-60
2022/06/25 12:40:44;;;;;;;0.63;0.30;;;19.80;60.10;;;;;;5087841;28;20101;-60
2022/06/25 12:43:14;;;;;;;0.45;0.25;;;19.80;60.10;;;;;;5086777;28;20457;-59
2022/06/25 12:45:43;;;;;;;0.30;0.30;;;19.90;60.20;;;;;;5091863;28;20141;-60
2022/06/25 12:48:11;;;;;;;0.30;0.30;;;19.80;60.40;;;;;;5102617;28;20056;-60
2022/06/25 12:50:40;;;;;;;0.20;0.20;;;19.90;60.60;;;;;;5089572;28;20043;-60
2022/06/25 12:53:14;;;;;;;0.25;0.25;;;20.00;60.60;;;;;;5100920;28;20040;-60
2022/06/25 12:55:46;;;;;;;0.55;0.50;;;20.10;60.50;;;;;;5090879;28;20071;-60
2022/06/25 12:58:14;;;;;;;1.95;0.30;;;20.10;60.60;;;;;;5091519;28;20131;-60
2022/06/25 13:00:44;;;;;;;1.40;0.60;;;20.20;60.60;;;;;;5098913;28;20089;-60
2022/06/25 13:03:15;;;;;;;0.35;0.10;;;20.20;60.60;;;;;;5111247;28;20112;-60
2022/06/25 13:05:43;;;;;;;0.15;0.15;;;20.30;60.50;;;;;;5094560;28;20044;-59
2022/06/25 13:08:10;;;;;;;0.43;0.43;;;20.30;60.40;;;;;;5093296;28;20043;-60
2022/06/25 13:10:37;;;;;;;0.20;0.20;;;20.40;60.50;;;;;;5110865;28;20096;-60
2022/06/25 13:13:05;;;;;;;0.50;0.20;;;20.40;61.10;;;;;;5111801;28;20097;-60
2022/06/25 13:15:34;;;;;;;0.25;0.25;;;20.40;60.20;;;;;;5112243;28;20086;-60
2022/06/25 13:18:02;;;;;;;0.30;0.20;;;20.50;60.10;;;;;;5110092;28;20051;-60